Robert E. Mcallister — WDC8669 — position and weather

sailwx.info

Track history (hours):
 
Tides and Currents Weather Stations Pressure Air Temp Water Temp Dewpoint Dewpoint Depression Visibility Wind Speed Wind Dir Waves Ship Positions

Robert E. Mcallister

Owner: McAllister Towing & Transportation, Staten Island, NY. More information available from US FCC via Universal Licensing System and Coast Guard Vessel Documentation Center.

Last reported at 2016-Aug-28 13:31 UTC. Time now 2016-Aug-28 19:00 UTC.
Position N 40°27' W 074°03'.

Length 34 m; draft 4.3 m.

Type: Tug. MMSI: 367091120.

Date/timePositionNaut miles runAvg speedWind from/ knotsBaromVisibWave heightAir tempDewpointWater temp
2016-Aug-28 13:31N 40°27' W 074°03'0 0.0
2016-Aug-28 12:33N 40°27' W 074°03'0 0.0
2016-Aug-28 11:33N 40°27' W 074°03'0 0.0
2016-Aug-28 10:33N 40°27' W 074°03'0 0.0
2016-Aug-28 09:32N 40°27' W 074°03'0 0.0
2016-Aug-28 08:32N 40°27' W 074°03'0 0.0
2016-Aug-28 07:28N 40°27' W 074°03'0 0.0
2016-Aug-28 06:33N 40°27' W 074°03'0 0.0
2016-Aug-28 05:33N 40°27' W 074°03'0 0.0
2016-Aug-28 04:29N 40°27' W 074°03'0 0.0
2016-Aug-28 03:33N 40°27' W 074°03'0 0.0
2016-Aug-28 02:25N 40°27' W 074°03'0 0.0
2016-Aug-28 01:33N 40°27' W 074°03'0 0.0
2016-Aug-28 00:33N 40°27' W 074°03'0 0.0
2016-Aug-27 23:33N 40°27' W 074°03'0 0.0
2016-Aug-27 22:33N 40°27' W 074°03'0 0.0
2016-Aug-27 21:33N 40°27' W 074°03'0 0.0
2016-Aug-27 20:33N 40°27' W 074°03'0 0.0
2016-Aug-27 18:21N 40°27' W 074°03'0 0.0
2016-Aug-27 11:12N 40°27' W 074°03'0 0.0
2016-Aug-27 09:19N 40°27' W 074°03'0 0.0
2016-Aug-27 08:32N 40°27' W 074°03'0 0.0
2016-Aug-27 07:32N 40°27' W 074°03'0 0.0
2016-Aug-26 15:22N 40°27' W 074°03'0 0.0
2016-Aug-26 13:09N 40°27' W 074°03'0 0.0
2016-Aug-26 12:19N 40°27' W 074°03'0 0.0
2016-Aug-26 11:12N 40°27' W 074°03'0 0.0
2016-Aug-26 10:14N 40°27' W 074°03'0 0.0
2016-Aug-26 09:18N 40°27' W 074°03'0 0.0
2016-Aug-26 08:33N 40°27' W 074°03'0 0.0
2016-Aug-26 07:25N 40°27' W 074°03'0 0.0
2016-Aug-26 03:08N 40°27' W 074°03'0 0.0
2016-Aug-26 01:23N 40°27' W 074°03'0 0.0
2016-Aug-26 00:24N 40°27' W 074°03'0 0.0
2016-Aug-25 23:19N 40°27' W 074°03'0 0.0
2016-Aug-25 22:32N 40°27' W 074°03'0 0.0
2016-Aug-25 21:32N 40°27' W 074°03'0 0.0
2016-Aug-25 20:29N 40°27' W 074°03'0 0.0
2016-Aug-24 12:29N 40°27' W 074°03'0 0.0
2016-Aug-24 11:33N 40°27' W 074°03'0 0.0
2016-Aug-24 10:09N 40°27' W 074°03'0 0.0
2016-Aug-24 09:32N 40°27' W 074°03'0 0.0
2016-Aug-24 08:29N 40°27' W 074°03'0 0.0
2016-Aug-24 07:27N 40°27' W 074°03'0 0.0
2016-Aug-24 01:12N 40°27' W 074°03'0 0.0
2016-Aug-23 12:16N 40°27' W 074°03'0 0.0
2016-Aug-23 11:29N 40°27' W 074°03'0 0.0
2016-Aug-23 09:20N 40°27' W 074°03'  
2016-Aug-19 14:25N 40°27' W 074°03'4 0.9
2016-Aug-19 10:20N 40°31' W 074°03'7 8.9
2016-Aug-19 09:33N 40°38' W 074°03'5 3.8
2016-Aug-19 08:15N 40°38' W 074°10'0 0.0
2016-Aug-19 07:33N 40°38' W 074°10'0 0.0
2016-Aug-19 06:28N 40°38' W 074°10'0 0.0
2016-Aug-19 05:32N 40°38' W 074°10'0 0.0
2016-Aug-19 04:33N 40°38' W 074°10'0 0.0
2016-Aug-19 03:32N 40°38' W 074°10'0 0.0
2016-Aug-19 02:32N 40°38' W 074°10'6 5.6
2016-Aug-19 01:33N 40°40' W 074°03'4 3.6
2016-Aug-19 00:33N 40°42' W 073°59'3 2.6
2016-Aug-18 23:33N 40°41' W 074°02'2 2.1
2016-Aug-18 22:33N 40°42' W 074°00'4 3.7
2016-Aug-18 21:33N 40°40' W 074°04'5 1.5
2016-Aug-18 18:11N 40°38' W 074°10'0 0.7
2016-Aug-18 17:26N 40°38' W 074°09'7 8.1
2016-Aug-18 16:33N 40°43' W 074°02'4 3.6
2016-Aug-18 15:33N 40°46' W 074°00'0 0.0
2016-Aug-18 14:33N 40°46' W 074°00'5 4.9
2016-Aug-18 13:33N 40°41' W 074°02'  
Track history (hours):
 
Tides and Currents Weather Stations Pressure Air Temp Water Temp Dewpoint Dewpoint Depression Visibility Wind Speed Wind Dir Waves Ship Positions

Robert E. Mcallister

Owner: McAllister Towing & Transportation, Staten Island, NY. More information available from US FCC via Universal Licensing System and Coast Guard Vessel Documentation Center.

Last reported at 2016-Aug-28 13:31 UTC. Time now 2016-Aug-28 19:00 UTC.
Position N 40°27' W 074°03'.

Length 34 m; draft 4.3 m.

Type: Tug. MMSI: 367091120.

Date/timePositionNaut miles runAvg speedWind from/ knotsBaromVisibWave heightAir tempDewpointWater temp
2016-Aug-28 13:31N 40°27' W 074°03'0 0.0
2016-Aug-28 12:33N 40°27' W 074°03'0 0.0
2016-Aug-28 11:33N 40°27' W 074°03'0 0.0
2016-Aug-28 10:33N 40°27' W 074°03'0 0.0
2016-Aug-28 09:32N 40°27' W 074°03'0 0.0
2016-Aug-28 08:32N 40°27' W 074°03'0 0.0
2016-Aug-28 07:28N 40°27' W 074°03'0 0.0
2016-Aug-28 06:33N 40°27' W 074°03'0 0.0
2016-Aug-28 05:33N 40°27' W 074°03'0 0.0
2016-Aug-28 04:29N 40°27' W 074°03'0 0.0
2016-Aug-28 03:33N 40°27' W 074°03'0 0.0
2016-Aug-28 02:25N 40°27' W 074°03'0 0.0
2016-Aug-28 01:33N 40°27' W 074°03'0 0.0
2016-Aug-28 00:33N 40°27' W 074°03'0 0.0
2016-Aug-27 23:33N 40°27' W 074°03'0 0.0
2016-Aug-27 22:33N 40°27' W 074°03'0 0.0
2016-Aug-27 21:33N 40°27' W 074°03'0 0.0
2016-Aug-27 20:33N 40°27' W 074°03'0 0.0
2016-Aug-27 18:21N 40°27' W 074°03'0 0.0
2016-Aug-27 11:12N 40°27' W 074°03'0 0.0
2016-Aug-27 09:19N 40°27' W 074°03'0 0.0
2016-Aug-27 08:32N 40°27' W 074°03'0 0.0
2016-Aug-27 07:32N 40°27' W 074°03'0 0.0
2016-Aug-26 15:22N 40°27' W 074°03'0 0.0
2016-Aug-26 13:09N 40°27' W 074°03'0 0.0
2016-Aug-26 12:19N 40°27' W 074°03'0 0.0
2016-Aug-26 11:12N 40°27' W 074°03'0 0.0
2016-Aug-26 10:14N 40°27' W 074°03'0 0.0
2016-Aug-26 09:18N 40°27' W 074°03'0 0.0
2016-Aug-26 08:33N 40°27' W 074°03'0 0.0
2016-Aug-26 07:25N 40°27' W 074°03'0 0.0
2016-Aug-26 03:08N 40°27' W 074°03'0 0.0
2016-Aug-26 01:23N 40°27' W 074°03'0 0.0
2016-Aug-26 00:24N 40°27' W 074°03'0 0.0
2016-Aug-25 23:19N 40°27' W 074°03'0 0.0
2016-Aug-25 22:32N 40°27' W 074°03'0 0.0
2016-Aug-25 21:32N 40°27' W 074°03'0 0.0
2016-Aug-25 20:29N 40°27' W 074°03'0 0.0
2016-Aug-24 12:29N 40°27' W 074°03'0 0.0
2016-Aug-24 11:33N 40°27' W 074°03'0 0.0
2016-Aug-24 10:09N 40°27' W 074°03'0 0.0
2016-Aug-24 09:32N 40°27' W 074°03'0 0.0
2016-Aug-24 08:29N 40°27' W 074°03'0 0.0
2016-Aug-24 07:27N 40°27' W 074°03'0 0.0
2016-Aug-24 01:12N 40°27' W 074°03'0 0.0
2016-Aug-23 12:16N 40°27' W 074°03'0 0.0
2016-Aug-23 11:29N 40°27' W 074°03'0 0.0
2016-Aug-23 09:20N 40°27' W 074°03'  
2016-Aug-19 14:25N 40°27' W 074°03'4 0.9
2016-Aug-19 10:20N 40°31' W 074°03'7 8.9
2016-Aug-19 09:33N 40°38' W 074°03'5 3.8
2016-Aug-19 08:15N 40°38' W 074°10'0 0.0
2016-Aug-19 07:33N 40°38' W 074°10'0 0.0
2016-Aug-19 06:28N 40°38' W 074°10'0 0.0
2016-Aug-19 05:32N 40°38' W 074°10'0 0.0
2016-Aug-19 04:33N 40°38' W 074°10'0 0.0
2016-Aug-19 03:32N 40°38' W 074°10'0 0.0
2016-Aug-19 02:32N 40°38' W 074°10'6 5.6
2016-Aug-19 01:33N 40°40' W 074°03'4 3.6
2016-Aug-19 00:33N 40°42' W 073°59'3 2.6
2016-Aug-18 23:33N 40°41' W 074°02'2 2.1
2016-Aug-18 22:33N 40°42' W 074°00'4 3.7
2016-Aug-18 21:33N 40°40' W 074°04'5 1.5
2016-Aug-18 18:11N 40°38' W 074°10'0 0.7
2016-Aug-18 17:26N 40°38' W 074°09'7 8.1
2016-Aug-18 16:33N 40°43' W 074°02'4 3.6
2016-Aug-18 15:33N 40°46' W 074°00'0 0.0
2016-Aug-18 14:33N 40°46' W 074°00'5 4.9
2016-Aug-18 13:33N 40°41' W 074°02'  

Dump ship's entire track history